首页
METAR-TAF:

METAR-TAF

机场 :

Albertus Airport

Freeport, 伊利诺伊州, 美国

纬度: 42-14-47N, 经度: 089-34-56W, 海拔: 262米

当前天气观测

该预报发布于17分钟前的20:55 UTC
风速13节,风向西转西北,有时为16节阵风
温度 -3°C
湿度 68%
气压 1009 hPa
能見度: 11.3公里
散云层高于2300英尺
阴天层高于3400英尺

METAR: KFEP 142055Z AUTO 29013G16KT 7SM SCT023 OVC034 M03/M08 A2981 RMK AO2 T10301080

时间: 15:12 (21:12 UTC)


TAF: 丢失

超过4000个机场的气象观测和天气预报(METAR&TAF报告)。

可查询的气象台以黄色和红色小点在地图上表示。

将鼠标移到小点上方,可查看气象台名称。

然后点击查看天气观测和预报。

如需切换地图:点击带黑十字的绿色按钮放大地图;点击带横线的绿色按钮缩小地图;或者点击绿色箭头查看邻近地区的地图。


METAR-TAF: